Airfield :
LOGIN :

Register | Disclaimer

   EN    FR    IT 

 










Legend :    VFR   Marginal VFR   IFR   Intensive IFR   Very Intensive IFR
Visi :
Ceiling :
>= 8 km
>= 3000ft
5 to 8 km
1000 to 3000 ft
1500m to 5 km
500 to 1000 ft
800 to 1500m
200 to 500 ft
< 800m
< 200 ft
Symbols :   Thunderstorms  Fog  Heavy snow  Heavy precipitations  Wind > 20 kt
SIGMETs :     Misc.  Thunderstorms  Icing  Turbulence  Mountain Waves  Volcanic Ashes







- Airport Elevation : 423 ft
- IATA code : PIS
- Download approach charts


LFBI - Poitiers

CURRENT METAR :
  • 262300Z AUTO 36004KT 340V070 CAVOK 01/M00 Q1018 NOSIG

EXPIRED METARs :
  • 262230Z AUTO 33004KT CAVOK 02/M00 Q1018 NOSIG
  • 262200Z AUTO 32004KT CAVOK 02/00 Q1018 NOSIG
  • 262130Z AUTO 34004KT CAVOK 03/00 Q1018 NOSIG
  • 262100Z AUTO 31004KT 9999 FEW032 SCT039 04/00 Q1018 NOSIG
  • 262030Z AUTO 32004KT 310V010 9999 FEW043 BKN072 BKN084 04/01 Q1018 NOSIG

TAF TAF LFBI
Valid from the 26 at 18:00 until the 27 at 18:00 UTC


261700Z 2618/2718 36012KT 9999 SCT030 BKN050
TEMPO 2618/2620 4000 SHRA BKN025TCU
BECMG 2620/2622 34006KT CAVOK
PROB40 2702/2706 3000 BR
BECMG 2709/2711 03014KT
PROB40
TEMPO 2712/2718 -SHRA BKN050TCU
No reported NOTAMs for that airfield.
1 SIGMET reported for the Bordeaux FIR (LFBB) :
 
Severe turbulence
LFBB SIGMET 2 VALID 262300/270300 LFPW
LFBB BORDEAUX FIR/UIR SEV TURB FCST WI N4530 E00300 - N4400 W00100 - N4645 E00245 FL140/230 STNR NC=



MET'MAP, your aeronautical weather chart ! - Copyright ORBIFLY December 2007 - Disclaimer

ORBIFLY MET'MAP TEAM :

Programming & Development : Alexandra Zaïnal
Concept & Development : Baudouin d'Aumeries
Co-Development & Prog : Marc-Olivier Méhu
Technical & hardware support : Manuel Goepfert

Contact : metmap@orbifly.com




SOURCES & CREDITS :

   NOAA